createdAt,value
2022-12-11T00:02:31.162Z,8.70
2022-12-11T00:05:04.434Z,8.70
2022-12-11T00:07:36.945Z,8.70
2022-12-11T00:10:11.840Z,8.80
2022-12-11T00:12:44.291Z,8.80
2022-12-11T00:15:17.296Z,8.92
2022-12-11T00:17:50.035Z,9.00
2022-12-11T00:20:22.958Z,9.00
2022-12-11T00:22:55.384Z,8.94
2022-12-11T00:25:28.669Z,8.90
2022-12-11T00:28:01.158Z,8.90
2022-12-11T00:30:33.541Z,8.90
2022-12-11T00:33:06.085Z,8.90
2022-12-11T00:35:40.902Z,8.80
2022-12-11T00:38:17.423Z,8.80
2022-12-11T00:40:50.796Z,8.80
2022-12-11T00:43:23.239Z,8.80
2022-12-11T00:45:55.929Z,8.80
2022-12-11T00:48:28.455Z,8.80
2022-12-11T00:51:00.916Z,8.80
2022-12-11T00:53:33.388Z,8.70
2022-12-11T00:56:13.041Z,8.80
2022-12-11T00:58:45.541Z,8.82
2022-12-11T01:01:21.494Z,8.90
2022-12-11T01:03:55.257Z,8.96
2022-12-11T01:06:29.928Z,8.90
2022-12-11T01:09:22.369Z,8.90
2022-12-11T01:11:55.094Z,8.80
2022-12-11T01:14:29.356Z,8.80
2022-12-11T01:17:01.878Z,8.76
2022-12-11T01:19:34.700Z,8.76
2022-12-11T01:22:07.129Z,8.72
2022-12-11T01:24:39.649Z,8.72
2022-12-11T01:27:12.228Z,8.70
2022-12-11T01:29:44.620Z,8.80
2022-12-11T01:32:17.080Z,8.90
2022-12-11T01:34:49.553Z,9.00
2022-12-11T01:37:22.333Z,9.00
2022-12-11T01:39:55.377Z,9.00
2022-12-11T01:42:29.576Z,8.94
2022-12-11T01:45:36.567Z,8.80
2022-12-11T01:48:15.348Z,8.66
2022-12-11T01:50:52.490Z,8.50
2022-12-11T01:53:32.769Z,8.40
2022-12-11T01:56:07.407Z,8.40
2022-12-11T01:58:47.637Z,8.30
2022-12-11T02:01:28.711Z,8.40
2022-12-11T02:04:02.349Z,8.40
2022-12-11T02:06:42.045Z,8.44
2022-12-11T02:09:18.331Z,8.50
2022-12-11T02:12:03.436Z,8.50
2022-12-11T02:14:44.292Z,8.60
2022-12-11T02:17:24.333Z,8.60
2022-12-11T02:20:14.246Z,8.60
2022-12-11T02:23:16.388Z,8.60
2022-12-11T02:26:08.217Z,8.50
2022-12-11T02:28:46.691Z,8.50
2022-12-11T02:31:34.632Z,8.40
2022-12-11T02:34:14.478Z,8.36
2022-12-11T02:36:54.089Z,8.30
2022-12-11T02:39:29.811Z,8.20
2022-12-11T02:42:04.858Z,8.18
2022-12-11T02:44:39.295Z,8.20
2022-12-11T02:47:16.129Z,8.26
2022-12-11T02:49:53.163Z,8.30
2022-12-11T02:52:31.110Z,8.34
2022-12-11T02:55:08.644Z,8.40
2022-12-11T02:57:48.883Z,8.40
2022-12-11T03:00:22.758Z,8.50
2022-12-11T03:02:55.707Z,8.56
2022-12-11T03:05:28.853Z,8.60
2022-12-11T03:08:01.295Z,8.70
2022-12-11T03:10:34.044Z,8.70
2022-12-11T03:13:07.831Z,8.70
2022-12-11T03:15:59.609Z,8.70
2022-12-11T03:18:41.417Z,8.70
2022-12-11T03:21:20.517Z,8.70
2022-12-11T03:24:02.897Z,8.70
2022-12-11T03:26:42.700Z,8.70
2022-12-11T03:29:21.822Z,8.70
2022-12-11T03:32:00.314Z,8.80
2022-12-11T03:34:42.737Z,8.88
2022-12-11T03:37:17.969Z,8.90
2022-12-11T03:39:56.897Z,9.00
2022-12-11T03:42:30.285Z,9.00
2022-12-11T03:45:06.503Z,9.08
2022-12-11T03:47:41.184Z,9.10
2022-12-11T03:50:17.950Z,9.10
2022-12-11T03:52:51.997Z,9.10
2022-12-11T03:55:27.928Z,9.20
2022-12-11T03:58:00.862Z,9.24
2022-12-11T04:00:33.703Z,9.30
2022-12-11T04:03:16.121Z,9.34
2022-12-11T04:05:51.213Z,9.40
2022-12-11T04:08:25.429Z,9.40
2022-12-11T04:11:11.809Z,9.40
2022-12-11T04:13:45.362Z,9.30
2022-12-11T04:16:17.864Z,9.30
2022-12-11T04:19:07.939Z,9.32
2022-12-11T04:21:58.249Z,9.40
2022-12-11T04:24:30.711Z,9.40
2022-12-11T04:27:03.273Z,9.30
2022-12-11T04:29:35.857Z,9.20
2022-12-11T04:32:08.676Z,9.10
2022-12-11T04:34:41.517Z,9.00
2022-12-11T04:37:14.167Z,8.90
2022-12-11T04:39:46.641Z,8.80
2022-12-11T04:42:19.044Z,8.82
2022-12-11T04:44:51.429Z,8.84
2022-12-11T04:47:23.873Z,8.90
2022-12-11T04:49:56.381Z,8.90
2022-12-11T04:52:28.884Z,8.90
2022-12-11T04:55:01.263Z,8.90
2022-12-11T04:57:33.698Z,8.80
2022-12-11T05:00:08.454Z,8.80
2022-12-11T05:02:43.659Z,8.70
2022-12-11T05:05:16.347Z,8.68
2022-12-11T05:07:48.954Z,8.60
2022-12-11T05:10:21.730Z,8.50
2022-12-11T05:12:54.140Z,8.42
2022-12-11T05:15:26.570Z,8.40
2022-12-11T05:17:59.032Z,8.30
2022-12-11T05:20:31.457Z,8.30
2022-12-11T05:23:03.911Z,8.26
2022-12-11T05:25:36.354Z,8.20
2022-12-11T05:28:08.932Z,8.18
2022-12-11T05:30:41.299Z,8.10
2022-12-11T05:33:13.711Z,8.10
2022-12-11T05:35:51.870Z,8.10
2022-12-11T05:38:24.875Z,8.10
2022-12-11T05:41:09.056Z,8.12
2022-12-11T05:43:42.734Z,8.20
2022-12-11T05:46:19.196Z,8.30
2022-12-11T05:48:56.009Z,8.30
2022-12-11T05:51:29.794Z,8.34
2022-12-11T05:54:03.112Z,8.30
2022-12-11T05:56:38.004Z,8.20
2022-12-11T05:59:11.309Z,8.20
2022-12-11T06:01:45.533Z,8.20
2022-12-11T06:04:18.359Z,8.18
2022-12-11T06:06:50.883Z,8.10
2022-12-11T06:09:23.320Z,8.12
2022-12-11T06:11:55.832Z,8.10
2022-12-11T06:14:28.570Z,8.00
2022-12-11T06:17:01.576Z,7.86
2022-12-11T06:19:36.913Z,7.80
2022-12-11T06:22:09.866Z,7.80
2022-12-11T06:24:42.926Z,7.80
2022-12-11T06:27:15.911Z,7.80
2022-12-11T06:29:49.230Z,7.80
2022-12-11T06:32:21.886Z,7.78
2022-12-11T06:34:54.563Z,7.80
2022-12-11T06:37:27.007Z,7.90
2022-12-11T06:39:59.611Z,7.90
2022-12-11T06:42:34.057Z,7.90
2022-12-11T06:45:09.008Z,7.72
2022-12-11T06:47:41.651Z,7.60
2022-12-11T06:50:14.434Z,7.40
2022-12-11T06:52:46.870Z,7.30
2022-12-11T06:55:19.800Z,7.20
2022-12-11T06:57:52.493Z,7.30
2022-12-11T07:00:25.184Z,7.36
2022-12-11T07:02:57.734Z,7.40
2022-12-11T07:05:30.207Z,7.44
2022-12-11T07:08:02.842Z,7.40
2022-12-11T07:10:36.749Z,7.40
2022-12-11T07:13:09.176Z,7.30
2022-12-11T07:15:42.350Z,7.20
2022-12-11T07:18:14.841Z,7.20
2022-12-11T07:20:47.360Z,7.22
2022-12-11T07:23:19.870Z,7.30
2022-12-11T07:25:52.645Z,7.30
2022-12-11T07:28:26.331Z,7.20
2022-12-11T07:30:58.954Z,7.10
2022-12-11T07:33:31.534Z,7.00
2022-12-11T07:36:10.629Z,6.90
2022-12-11T07:38:43.891Z,6.86
2022-12-11T07:41:18.852Z,6.80
2022-12-11T07:43:54.541Z,6.80
2022-12-11T07:46:31.335Z,6.80
2022-12-11T07:49:06.115Z,6.80
2022-12-11T07:51:40.263Z,6.80
2022-12-11T07:54:17.002Z,6.90
2022-12-11T07:56:53.696Z,6.98
2022-12-11T07:59:26.701Z,7.00
2022-12-11T08:01:59.182Z,7.08
2022-12-11T08:04:31.680Z,7.00
2022-12-11T08:07:04.231Z,7.00
2022-12-11T08:09:37.010Z,7.00
2022-12-11T08:12:10.427Z,7.10
2022-12-11T08:14:43.358Z,7.10
2022-12-11T08:17:15.984Z,7.10
2022-12-11T08:19:48.340Z,7.10
2022-12-11T08:22:21.040Z,7.18
2022-12-11T08:24:53.705Z,7.20
2022-12-11T08:27:26.792Z,7.20
2022-12-11T08:29:59.523Z,7.24
2022-12-11T08:32:32.156Z,7.30
2022-12-11T08:35:05.364Z,7.30
2022-12-11T08:37:38.193Z,7.20
2022-12-11T08:40:14.250Z,7.10
2022-12-11T08:42:46.772Z,7.10
2022-12-11T08:45:19.597Z,7.20
2022-12-11T08:47:52.132Z,7.20
2022-12-11T08:50:24.836Z,7.20
2022-12-11T08:52:57.216Z,7.26
2022-12-11T08:55:29.751Z,7.20
2022-12-11T08:58:02.186Z,7.20
2022-12-11T09:00:34.900Z,7.20
2022-12-11T09:03:12.652Z,7.30
2022-12-11T09:05:45.514Z,7.36
2022-12-11T09:08:18.063Z,7.40
2022-12-11T09:10:50.666Z,7.40
2022-12-11T09:13:23.230Z,7.40
2022-12-11T09:15:55.892Z,7.40
2022-12-11T09:18:28.901Z,7.50
2022-12-11T09:21:07.647Z,7.50
2022-12-11T09:23:40.506Z,7.50
2022-12-11T09:26:16.887Z,7.40
2022-12-11T09:28:51.398Z,7.30
2022-12-11T09:31:28.082Z,7.30
2022-12-11T09:34:04.743Z,7.34
2022-12-11T09:36:39.250Z,7.40
2022-12-11T09:39:14.769Z,7.40
2022-12-11T09:42:01.051Z,7.40
2022-12-11T09:44:44.525Z,7.40
2022-12-11T09:47:33.200Z,7.40
2022-12-11T09:50:18.346Z,7.42
2022-12-11T09:53:04.810Z,7.42
2022-12-11T09:55:49.302Z,7.50
2022-12-11T09:58:35.589Z,7.40
2022-12-11T10:01:20.705Z,7.30
2022-12-11T10:04:19.500Z,7.26
2022-12-11T10:07:04.206Z,7.30
2022-12-11T10:09:48.271Z,7.30
2022-12-11T10:12:45.819Z,7.30
2022-12-11T10:15:32.360Z,7.20
2022-12-11T10:18:07.235Z,7.20
2022-12-11T10:20:42.783Z,7.20
2022-12-11T10:23:25.413Z,7.30
2022-12-11T10:26:07.596Z,7.30
2022-12-11T10:28:40.250Z,7.30
2022-12-11T10:31:20.168Z,7.20
2022-12-11T10:34:03.140Z,7.10
2022-12-11T10:36:40.760Z,7.10
2022-12-11T10:39:20.676Z,7.10
2022-12-11T10:41:55.790Z,7.10
2022-12-11T10:44:32.609Z,7.00
2022-12-11T10:47:12.344Z,7.00
2022-12-11T10:49:59.584Z,6.90
2022-12-11T10:52:38.085Z,6.90
2022-12-11T10:55:23.177Z,6.82
2022-12-11T10:58:05.848Z,6.80
2022-12-11T11:00:42.809Z,6.80
2022-12-11T11:03:27.517Z,6.80
2022-12-11T11:06:17.332Z,6.80
2022-12-11T11:08:52.290Z,6.80
2022-12-11T11:11:34.274Z,6.88
2022-12-11T11:14:21.546Z,6.90
2022-12-11T11:16:57.420Z,6.90
2022-12-11T11:19:34.580Z,6.90
2022-12-11T11:22:16.271Z,7.00
2022-12-11T11:24:57.580Z,7.00
2022-12-11T11:27:38.123Z,7.00
2022-12-11T11:30:27.018Z,7.00
2022-12-11T11:33:04.707Z,7.10
2022-12-11T11:35:39.074Z,7.10
2022-12-11T11:38:23.201Z,7.14
2022-12-11T11:41:13.118Z,7.16
2022-12-11T11:43:52.822Z,7.10
2022-12-11T11:46:35.132Z,7.10
2022-12-11T11:49:19.993Z,7.10
2022-12-11T11:52:01.843Z,7.00
2022-12-11T11:54:38.791Z,7.00
2022-12-11T11:57:35.148Z,7.00
2022-12-11T12:00:22.468Z,7.10
2022-12-11T12:02:59.138Z,7.20
2022-12-11T12:05:43.095Z,7.20
2022-12-11T12:08:37.167Z,7.20
2022-12-11T12:11:22.598Z,7.20
2022-12-11T12:14:29.220Z,7.10
2022-12-11T12:17:25.592Z,7.10
2022-12-11T12:20:15.172Z,7.00
2022-12-11T12:23:11.371Z,7.00
2022-12-11T12:25:50.350Z,7.10
2022-12-11T12:28:33.978Z,7.10
2022-12-11T12:31:25.102Z,7.10
2022-12-11T12:34:17.919Z,7.10
2022-12-11T12:37:04.531Z,7.10
2022-12-11T12:39:54.796Z,7.00
2022-12-11T12:42:44.453Z,6.94
2022-12-11T12:45:30.039Z,6.90
2022-12-11T12:48:03.201Z,6.80
2022-12-11T12:50:47.719Z,6.90
2022-12-11T12:53:25.900Z,6.90
2022-12-11T12:56:00.218Z,6.88
2022-12-11T12:58:45.000Z,6.70
2022-12-11T13:01:24.486Z,6.60
2022-12-11T13:04:02.217Z,6.50
2022-12-11T13:06:39.747Z,6.40
2022-12-11T13:09:20.671Z,6.40
2022-12-11T13:11:58.023Z,6.40
2022-12-11T13:14:33.954Z,6.50
2022-12-11T13:17:37.126Z,6.54
2022-12-11T13:20:19.621Z,6.60
2022-12-11T13:23:27.937Z,6.60
2022-12-11T13:26:02.053Z,6.70
2022-12-11T13:28:51.156Z,6.70
2022-12-11T13:31:45.149Z,6.70
2022-12-11T13:34:25.577Z,6.70
2022-12-11T13:36:59.193Z,6.72
2022-12-11T13:39:35.258Z,6.70
2022-12-11T13:42:22.095Z,6.70
2022-12-11T13:44:55.818Z,6.70
2022-12-11T13:47:30.047Z,6.60
2022-12-11T13:50:16.693Z,6.50
2022-12-11T13:53:00.346Z,6.50
2022-12-11T13:55:35.853Z,6.40
2022-12-11T13:58:19.483Z,6.32
2022-12-11T14:01:08.795Z,6.24
2022-12-11T14:03:50.310Z,6.20
2022-12-11T14:06:23.727Z,6.10
2022-12-11T14:47:06.733Z,8.10
2022-12-11T14:49:52.393Z,7.82
2022-12-11T14:52:53.917Z,7.16
2022-12-11T14:55:36.104Z,7.00
2022-12-11T14:58:20.584Z,6.70
2022-12-11T15:01:06.877Z,6.40
2022-12-11T15:03:45.122Z,6.20
2022-12-11T15:06:36.118Z,6.00
2022-12-11T15:09:28.289Z,5.86
2022-12-11T15:12:14.822Z,5.70
2022-12-11T15:14:58.197Z,5.60
2022-12-11T15:17:37.322Z,5.60
2022-12-11T15:20:27.935Z,5.60
2022-12-11T15:23:15.522Z,5.56
2022-12-11T15:26:02.072Z,5.40
2022-12-11T15:28:43.342Z,5.20
2022-12-11T15:31:33.303Z,5.18
2022-12-11T15:34:38.185Z,5.18
2022-12-11T15:37:31.430Z,5.10
2022-12-11T15:40:12.889Z,5.10
2022-12-11T15:42:50.349Z,5.10
2022-12-11T15:45:29.138Z,5.20
2022-12-11T15:48:07.314Z,5.20
2022-12-11T15:50:45.493Z,5.26
2022-12-11T15:53:22.163Z,5.30
2022-12-11T15:55:59.434Z,5.20
2022-12-11T15:58:37.134Z,5.20
2022-12-11T16:01:14.982Z,5.20
2022-12-11T16:03:52.762Z,5.20
2022-12-11T16:06:30.003Z,5.20
2022-12-11T16:09:06.641Z,5.30
2022-12-11T16:11:43.352Z,5.30
2022-12-11T16:14:20.977Z,5.30
2022-12-11T16:16:57.553Z,5.30
2022-12-11T16:19:37.852Z,5.30
2022-12-11T16:22:16.222Z,5.34
2022-12-11T16:24:54.963Z,5.30
2022-12-11T16:27:31.785Z,5.30
2022-12-11T16:30:12.588Z,5.30
2022-12-11T16:32:49.007Z,5.40
2022-12-11T16:35:27.014Z,5.40
2022-12-11T16:38:04.173Z,5.42
2022-12-11T16:40:41.726Z,5.40
2022-12-11T16:43:18.424Z,5.40
2022-12-11T16:45:59.453Z,5.30
2022-12-11T16:48:36.465Z,5.26
2022-12-11T16:51:13.896Z,5.20
2022-12-11T16:53:51.454Z,5.20
2022-12-11T16:56:28.726Z,5.20
2022-12-11T16:59:09.345Z,5.22
2022-12-11T17:01:46.687Z,5.20
2022-12-11T17:04:22.790Z,5.20
2022-12-11T17:06:59.465Z,5.22
2022-12-11T17:09:35.271Z,5.30
2022-12-11T17:12:12.998Z,5.28
2022-12-11T17:14:50.423Z,5.30
2022-12-11T17:17:27.345Z,5.30
2022-12-11T17:20:05.159Z,5.30
2022-12-11T17:22:42.898Z,5.30
2022-12-11T17:25:22.797Z,5.32
2022-12-11T17:28:00.108Z,5.30
2022-12-11T17:30:36.104Z,5.20
2022-12-11T17:33:13.629Z,5.20
2022-12-11T17:35:50.642Z,5.10
2022-12-11T17:38:27.843Z,5.12
2022-12-11T17:41:08.608Z,5.20
2022-12-11T17:43:45.329Z,5.30
2022-12-11T17:46:22.889Z,5.30
2022-12-11T17:49:00.303Z,5.30
2022-12-11T17:51:37.455Z,5.30
2022-12-11T17:54:14.605Z,5.30
2022-12-11T17:56:51.723Z,5.30
2022-12-11T17:59:28.451Z,5.30
2022-12-11T18:02:05.216Z,5.30
2022-12-11T18:04:42.541Z,5.30
2022-12-11T18:07:19.671Z,5.30
2022-12-11T18:09:56.161Z,5.30
2022-12-11T18:12:33.277Z,5.30
2022-12-11T18:15:15.379Z,5.30
2022-12-11T18:17:52.738Z,5.20
2022-12-11T18:20:30.197Z,5.20
2022-12-11T18:23:07.761Z,5.20
2022-12-11T18:25:44.406Z,5.20
2022-12-11T18:28:21.808Z,5.20
2022-12-11T18:30:57.884Z,5.20
2022-12-11T18:33:38.328Z,5.10
2022-12-11T18:36:18.138Z,5.10
2022-12-11T18:38:56.438Z,5.10
2022-12-11T18:41:33.172Z,5.10
2022-12-11T18:44:10.985Z,5.10
2022-12-11T18:46:47.675Z,5.14
2022-12-11T18:49:24.676Z,5.12
2022-12-11T18:52:02.089Z,5.18
2022-12-11T18:54:38.795Z,5.20
2022-12-11T18:57:15.789Z,5.10
2022-12-11T18:59:55.644Z,5.12
2022-12-11T19:02:35.875Z,5.10
2022-12-11T19:05:15.745Z,5.10
2022-12-11T19:07:52.900Z,5.10
2022-12-11T19:10:30.429Z,5.10
2022-12-11T19:13:07.346Z,5.12
2022-12-11T19:15:48.235Z,5.20
2022-12-11T19:18:24.973Z,5.20
2022-12-11T19:21:08.689Z,5.18
2022-12-11T19:23:50.664Z,5.10
2022-12-11T19:26:28.585Z,5.10
2022-12-11T19:29:05.969Z,5.10
2022-12-11T19:31:43.104Z,5.10
2022-12-11T19:34:19.791Z,5.00
2022-12-11T19:36:56.823Z,5.00
2022-12-11T19:39:33.469Z,5.00
2022-12-11T19:42:11.112Z,5.00
2022-12-11T19:44:48.588Z,4.84
2022-12-11T19:47:25.647Z,4.80
2022-12-11T19:50:02.519Z,4.70
2022-12-11T19:52:42.942Z,4.60
2022-12-11T19:55:22.429Z,4.60
2022-12-11T19:57:59.614Z,4.60
2022-12-11T20:00:36.075Z,4.60
2022-12-11T20:03:12.886Z,4.50
2022-12-11T20:05:50.159Z,4.50
2022-12-11T20:08:44.123Z,4.40
2022-12-11T20:11:24.540Z,4.20
2022-12-11T20:14:02.032Z,3.98
2022-12-11T20:17:09.208Z,3.80
2022-12-11T20:19:33.869Z,3.70
2022-12-11T20:22:13.282Z,3.60
2022-12-11T20:24:50.120Z,3.50
2022-12-11T20:27:29.296Z,3.50
2022-12-11T20:30:14.262Z,3.50
2022-12-11T20:32:53.651Z,3.50
2022-12-11T20:35:31.307Z,3.50
2022-12-11T20:38:08.951Z,3.50
2022-12-11T20:40:50.710Z,3.50
2022-12-11T20:43:27.163Z,3.44
2022-12-11T20:46:03.521Z,3.40
2022-12-11T20:48:40.729Z,3.40
2022-12-11T20:51:25.649Z,3.30
2022-12-11T20:54:03.359Z,3.30
2022-12-11T20:56:41.279Z,3.24
2022-12-11T20:59:18.893Z,3.20
2022-12-11T21:01:56.193Z,3.10
2022-12-11T21:04:34.037Z,3.10
2022-12-11T21:07:11.465Z,3.10
2022-12-11T21:09:48.588Z,3.00
2022-12-11T21:12:31.334Z,3.00
2022-12-11T21:15:17.677Z,2.90
2022-12-11T21:17:55.020Z,2.80
2022-12-11T21:20:31.678Z,2.70
2022-12-11T21:23:08.900Z,2.76
2022-12-11T21:25:47.195Z,2.80
2022-12-11T21:28:24.192Z,2.80
2022-12-11T21:31:03.965Z,2.80
2022-12-11T21:33:40.823Z,2.80
2022-12-11T21:36:21.323Z,2.80
2022-12-11T21:38:57.766Z,2.80
2022-12-11T21:41:35.214Z,2.72
2022-12-11T21:47:10.265Z,2.70
2022-12-11T21:49:46.906Z,2.78
2022-12-11T21:52:23.832Z,2.80
2022-12-11T21:55:00.922Z,2.80
2022-12-11T21:57:38.202Z,2.78
2022-12-11T22:00:24.023Z,2.70
2022-12-11T22:03:02.735Z,2.70
2022-12-11T22:05:44.719Z,2.80
2022-12-11T22:08:22.597Z,2.80
2022-12-11T22:11:01.463Z,2.80
2022-12-11T22:13:45.733Z,2.80
2022-12-11T22:16:23.790Z,2.68
2022-12-11T22:19:01.493Z,2.60
2022-12-11T22:21:38.488Z,2.50
2022-12-11T22:24:16.636Z,2.48
2022-12-11T22:26:54.509Z,2.50
2022-12-11T22:29:31.367Z,2.50
2022-12-11T22:32:08.176Z,2.52
2022-12-11T22:34:47.007Z,2.50
2022-12-11T22:37:24.614Z,2.50
2022-12-11T22:40:00.769Z,2.50
2022-12-11T22:42:36.936Z,2.50
2022-12-11T22:45:18.217Z,2.44
2022-12-11T22:47:55.782Z,2.40
2022-12-11T22:50:32.976Z,2.40
2022-12-11T22:53:10.261Z,2.38
2022-12-11T22:55:47.705Z,2.40
2022-12-11T22:58:24.180Z,2.40
2022-12-11T23:01:00.827Z,2.30
2022-12-11T23:03:38.559Z,2.20
2022-12-11T23:06:19.837Z,2.12
2022-12-11T23:08:59.115Z,2.10
2022-12-11T23:11:38.447Z,1.94
2022-12-11T23:14:21.783Z,1.90
2022-12-11T23:16:58.465Z,1.84
2022-12-11T23:19:34.931Z,1.80
2022-12-11T23:22:12.777Z,1.80
2022-12-11T23:24:49.532Z,1.80
2022-12-11T23:27:26.471Z,1.80
2022-12-11T23:30:03.357Z,1.78
2022-12-11T23:32:40.792Z,1.70
2022-12-11T23:35:19.613Z,1.70
2022-12-11T23:37:56.424Z,1.70
2022-12-11T23:40:32.934Z,1.70
2022-12-11T23:43:09.509Z,1.70
2022-12-11T23:45:48.121Z,1.80
2022-12-11T23:48:24.619Z,1.80
2022-12-11T23:51:07.490Z,1.76
2022-12-11T23:53:44.412Z,1.72
2022-12-11T23:56:23.863Z,1.70
2022-12-11T23:59:02.288Z,1.70
